Meadia Heights, Pennsylvania
Current Conditions -  °F | °C
As of 8:53 AM on Tuesday 21 Oct 2014 (Local Time) from KLNS Reporting Station
Broken Clouds Broken Clouds  
Wind Chill: 51°   Ceiling: 8000
Heat Index: 51°   Visibility: 8mi
Dew Point: 49°   Wind: 0mph
Humidity: 92%   Direction: NA
Pressure: 29.88"   Gusts: NA
Location:  40.0158°N, 76.2452°W
Report Text: KLNS 211253Z 00000KT 8SM BKN080 11/09 A2988 RMK AO2 SLP118 T01060094
Loading
Personal Weather Stations






























Interactive Weather Map
Tropical Storm Tracking
New forecast layout! Learn more

10-Day Weather Forecast

Advertisements
Track Severe Weather on mobile